sensor_id;sensor_type;location;lat;lon;timestamp;pressure;altitude;pressure_sealevel;temperature;humidity
74045;BME280;62389;51.412;5.436;2023-08-20T00:01:22;101966.81;;;18.53;100.00
74045;BME280;62389;51.412;5.436;2023-08-20T00:03:50;101957.50;;;18.46;98.65
74045;BME280;62389;51.412;5.436;2023-08-20T00:06:16;101963.84;;;18.44;100.00
74045;BME280;62389;51.412;5.436;2023-08-20T00:08:41;101965.91;;;18.38;100.00
74045;BME280;62389;51.412;5.436;2023-08-20T00:11:07;101963.78;;;18.29;100.00
74045;BME280;62389;51.412;5.436;2023-08-20T00:13:33;101971.06;;;18.26;100.00
74045;BME280;62389;51.412;5.436;2023-08-20T00:15:59;101974.38;;;18.29;100.00
74045;BME280;62389;51.412;5.436;2023-08-20T00:18:25;101969.56;;;18.36;100.00
74045;BME280;62389;51.412;5.436;2023-08-20T00:20:50;101970.94;;;18.43;100.00
74045;BME280;62389;51.412;5.436;2023-08-20T00:23:16;101970.69;;;18.48;100.00
74045;BME280;62389;51.412;5.436;2023-08-20T00:25:43;101958.06;;;18.51;100.00
74045;BME280;62389;51.412;5.436;2023-08-20T00:28:09;101958.00;;;18.53;100.00
74045;BME280;62389;51.412;5.436;2023-08-20T00:30:34;101970.31;;;18.54;99.25
74045;BME280;62389;51.412;5.436;2023-08-20T00:32:59;101957.22;;;18.51;100.00
74045;BME280;62389;51.412;5.436;2023-08-20T00:35:25;101968.63;;;18.37;99.32
74045;BME280;62389;51.412;5.436;2023-08-20T00:37:50;101972.38;;;18.19;99.37
74045;BME280;62389;51.412;5.436;2023-08-20T00:40:15;101983.31;;;18.13;100.00
74045;BME280;62389;51.412;5.436;2023-08-20T00:42:41;101987.06;;;18.08;100.00
74045;BME280;62389;51.412;5.436;2023-08-20T00:45:06;101995.97;;;18.07;100.00
74045;BME280;62389;51.412;5.436;2023-08-20T00:47:32;101991.31;;;18.11;100.00
74045;BME280;62389;51.412;5.436;2023-08-20T00:49:58;101990.06;;;18.18;100.00
74045;BME280;62389;51.412;5.436;2023-08-20T00:52:23;101992.34;;;18.24;100.00
74045;BME280;62389;51.412;5.436;2023-08-20T00:54:49;101997.28;;;18.30;100.00
74045;BME280;62389;51.412;5.436;2023-08-20T00:57:18;102000.59;;;18.34;100.00
74045;BME280;62389;51.412;5.436;2023-08-20T00:59:47;102011.00;;;18.37;100.00
74045;BME280;62389;51.412;5.436;2023-08-20T01:02:15;102005.66;;;18.38;100.00
74045;BME280;62389;51.412;5.436;2023-08-20T01:04:41;102018.03;;;18.38;100.00
74045;BME280;62389;51.412;5.436;2023-08-20T01:07:21;102026.50;;;18.29;100.00
74045;BME280;62389;51.412;5.436;2023-08-20T01:12:36;102042.16;;;18.18;100.00
74045;BME280;62389;51.412;5.436;2023-08-20T01:15:02;102038.72;;;18.16;100.00
74045;BME280;62389;51.412;5.436;2023-08-20T01:17:27;102037.97;;;18.14;100.00
74045;BME280;62389;51.412;5.436;2023-08-20T01:19:53;102043.06;;;18.17;100.00
74045;BME280;62389;51.412;5.436;2023-08-20T01:30:11;102025.19;;;18.36;100.00
74045;BME280;62389;51.412;5.436;2023-08-20T01:32:38;102028.78;;;18.35;100.00
74045;BME280;62389;51.412;5.436;2023-08-20T01:35:11;102029.47;;;18.38;100.00
74045;BME280;62389;51.412;5.436;2023-08-20T01:37:36;102022.19;;;18.42;100.00
74045;BME280;62389;51.412;5.436;2023-08-20T01:40:02;102026.47;;;18.45;100.00
74045;BME280;62389;51.412;5.436;2023-08-20T01:42:29;102035.16;;;18.47;100.00
74045;BME280;62389;51.412;5.436;2023-08-20T01:44:54;102033.38;;;18.47;100.00
74045;BME280;62389;51.412;5.436;2023-08-20T01:47:19;102022.88;;;18.46;100.00
74045;BME280;62389;51.412;5.436;2023-08-20T01:49:45;102026.56;;;18.43;100.00
74045;BME280;62389;51.412;5.436;2023-08-20T01:52:10;102025.53;;;18.46;100.00
74045;BME280;62389;51.412;5.436;2023-08-20T01:54:36;102027.22;;;18.47;100.00
74045;BME280;62389;51.412;5.436;2023-08-20T01:57:01;102031.88;;;18.43;100.00
74045;BME280;62389;51.412;5.436;2023-08-20T01:59:26;102042.53;;;18.42;100.00
74045;BME280;62389;51.412;5.436;2023-08-20T02:01:52;102038.44;;;18.36;100.00
74045;BME280;62389;51.412;5.436;2023-08-20T02:04:17;102036.56;;;18.38;100.00
74045;BME280;62389;51.412;5.436;2023-08-20T02:06:42;102040.84;;;18.41;100.00
74045;BME280;62389;51.412;5.436;2023-08-20T02:09:08;102044.91;;;18.46;100.00
74045;BME280;62389;51.412;5.436;2023-08-20T02:11:33;102044.75;;;18.49;100.00
74045;BME280;62389;51.412;5.436;2023-08-20T02:14:01;102052.59;;;18.51;100.00
74045;BME280;62389;51.412;5.436;2023-08-20T02:16:27;102056.88;;;18.53;100.00
74045;BME280;62389;51.412;5.436;2023-08-20T02:18:52;102055.94;;;18.54;100.00
74045;BME280;62389;51.412;5.436;2023-08-20T02:21:18;102055.16;;;18.52;100.00
74045;BME280;62389;51.412;5.436;2023-08-20T02:23:43;102049.47;;;18.44;100.00
74045;BME280;62389;51.412;5.436;2023-08-20T02:26:10;102049.72;;;18.40;100.00
74045;BME280;62389;51.412;5.436;2023-08-20T02:28:35;102053.31;;;18.38;100.00
74045;BME280;62389;51.412;5.436;2023-08-20T02:31:04;102046.50;;;18.34;100.00
74045;BME280;62389;51.412;5.436;2023-08-20T02:33:29;102044.69;;;18.35;100.00
74045;BME280;62389;51.412;5.436;2023-08-20T02:35:55;102038.63;;;18.33;100.00
74045;BME280;62389;51.412;5.436;2023-08-20T02:38:20;102038.91;;;18.28;100.00
74045;BME280;62389;51.412;5.436;2023-08-20T02:40:46;102038.03;;;18.28;100.00
74045;BME280;62389;51.412;5.436;2023-08-20T02:43:11;102030.09;;;18.28;100.00
74045;BME280;62389;51.412;5.436;2023-08-20T02:45:41;102037.09;;;18.29;100.00
74045;BME280;62389;51.412;5.436;2023-08-20T02:48:07;102038.81;;;18.30;100.00
74045;BME280;62389;51.412;5.436;2023-08-20T02:50:32;102032.50;;;18.32;100.00
74045;BME280;62389;51.412;5.436;2023-08-20T02:52:58;102039.50;;;18.33;100.00
74045;BME280;62389;51.412;5.436;2023-08-20T02:55:23;102027.25;;;18.31;100.00
74045;BME280;62389;51.412;5.436;2023-08-20T02:57:48;102030.00;;;18.29;100.00
74045;BME280;62389;51.412;5.436;2023-08-20T03:00:14;102030.09;;;18.28;100.00
74045;BME280;62389;51.412;5.436;2023-08-20T03:02:39;102036.56;;;18.22;100.00
74045;BME280;62389;51.412;5.436;2023-08-20T03:05:07;102036.88;;;18.18;100.00
74045;BME280;62389;51.412;5.436;2023-08-20T03:07:33;102036.19;;;18.14;100.00
74045;BME280;62389;51.412;5.436;2023-08-20T03:09:59;102031.88;;;18.11;100.00
74045;BME280;62389;51.412;5.436;2023-08-20T03:12:24;102023.28;;;18.08;100.00
74045;BME280;62389;51.412;5.436;2023-08-20T03:14:49;102028.66;;;18.06;100.00
74045;BME280;62389;51.412;5.436;2023-08-20T03:17:15;102031.50;;;18.03;100.00
74045;BME280;62389;51.412;5.436;2023-08-20T03:19:53;102029.00;;;18.00;100.00
74045;BME280;62389;51.412;5.436;2023-08-20T03:22:19;102029.34;;;17.94;100.00
74045;BME280;62389;51.412;5.436;2023-08-20T03:24:44;102027.91;;;17.89;100.00
74045;BME280;62389;51.412;5.436;2023-08-20T03:27:10;102025.50;;;17.84;100.00
74045;BME280;62389;51.412;5.436;2023-08-20T03:29:35;102022.06;;;17.82;100.00
74045;BME280;62389;51.412;5.436;2023-08-20T03:32:00;102024.91;;;17.79;100.00
74045;BME280;62389;51.412;5.436;2023-08-20T03:34:25;102020.56;;;17.78;100.00
74045;BME280;62389;51.412;5.436;2023-08-20T03:36:51;102021.56;;;17.75;100.00
74045;BME280;62389;51.412;5.436;2023-08-20T03:39:16;102018.16;;;17.73;100.00
74045;BME280;62389;51.412;5.436;2023-08-20T03:41:41;102025.28;;;17.71;100.00
74045;BME280;62389;51.412;5.436;2023-08-20T03:44:07;102022.13;;;17.65;100.00
74045;BME280;62389;51.412;5.436;2023-08-20T03:46:32;102033.75;;;17.62;100.00
74045;BME280;62389;51.412;5.436;2023-08-20T03:48:58;102037.41;;;17.59;100.00
74045;BME280;62389;51.412;5.436;2023-08-20T03:51:23;102041.13;;;17.55;100.00
74045;BME280;62389;51.412;5.436;2023-08-20T03:53:48;102036.78;;;17.54;100.00
74045;BME280;62389;51.412;5.436;2023-08-20T03:56:14;102043.03;;;17.53;100.00
74045;BME280;62389;51.412;5.436;2023-08-20T03:58:39;102048.66;;;17.47;100.00
74045;BME280;62389;51.412;5.436;2023-08-20T04:01:04;102043.66;;;17.41;100.00
74045;BME280;62389;51.412;5.436;2023-08-20T04:03:29;102053.63;;;17.36;100.00
74045;BME280;62389;51.412;5.436;2023-08-20T04:05:55;102050.97;;;17.36;100.00
74045;BME280;62389;51.412;5.436;2023-08-20T04:08:20;102047.50;;;17.35;100.00
74045;BME280;62389;51.412;5.436;2023-08-20T04:10:46;102056.47;;;17.33;100.00
74045;BME280;62389;51.412;5.436;2023-08-20T04:13:11;102054.81;;;17.30;100.00
74045;BME280;62389;51.412;5.436;2023-08-20T04:15:39;102061.19;;;17.26;100.00
74045;BME280;62389;51.412;5.436;2023-08-20T04:18:04;102060.44;;;17.24;100.00
74045;BME280;62389;51.412;5.436;2023-08-20T04:20:30;102061.44;;;17.22;100.00
74045;BME280;62389;51.412;5.436;2023-08-20T04:22:55;102065.94;;;17.20;100.00
74045;BME280;62389;51.412;5.436;2023-08-20T04:25:21;102059.81;;;17.19;100.00
74045;BME280;62389;51.412;5.436;2023-08-20T04:27:46;102058.16;;;17.17;100.00
74045;BME280;62389;51.412;5.436;2023-08-20T04:30:12;102059.28;;;17.13;100.00
74045;BME280;62389;51.412;5.436;2023-08-20T04:32:37;102063.88;;;17.09;100.00
74045;BME280;62389;51.412;5.436;2023-08-20T04:35:03;102068.31;;;17.08;100.00
74045;BME280;62389;51.412;5.436;2023-08-20T04:37:28;102066.41;;;17.11;100.00
74045;BME280;62389;51.412;5.436;2023-08-20T04:39:53;102063.72;;;17.12;100.00
74045;BME280;62389;51.412;5.436;2023-08-20T04:42:19;102060.13;;;17.13;100.00
74045;BME280;62389;51.412;5.436;2023-08-20T04:44:44;102063.72;;;17.12;100.00
74045;BME280;62389;51.412;5.436;2023-08-20T04:47:12;102060.19;;;17.12;100.00
74045;BME280;62389;51.412;5.436;2023-08-20T04:49:38;102068.13;;;17.12;100.00
74045;BME280;62389;51.412;5.436;2023-08-20T04:52:04;102072.56;;;17.11;100.00
74045;BME280;62389;51.412;5.436;2023-08-20T04:54:29;102076.22;;;17.08;100.00
74045;BME280;62389;51.412;5.436;2023-08-20T04:56:54;102076.38;;;17.05;100.00
74045;BME280;62389;51.412;5.436;2023-08-20T04:59:20;102068.63;;;17.02;100.00
74045;BME280;62389;51.412;5.436;2023-08-20T05:01:45;102075.75;;;17.00;100.00
74045;BME280;62389;51.412;5.436;2023-08-20T05:04:10;102074.44;;;16.92;100.00
74045;BME280;62389;51.412;5.436;2023-08-20T05:06:36;102076.41;;;16.88;100.00
74045;BME280;62389;51.412;5.436;2023-08-20T05:09:02;102078.25;;;16.86;100.00
74045;BME280;62389;51.412;5.436;2023-08-20T05:11:28;102083.53;;;16.86;100.00
74045;BME280;62389;51.412;5.436;2023-08-20T05:13:56;102077.56;;;16.82;100.00
74045;BME280;62389;51.412;5.436;2023-08-20T05:16:22;102082.00;;;16.82;100.00
74045;BME280;62389;51.412;5.436;2023-08-20T05:18:47;102077.78;;;16.78;100.00
74045;BME280;62389;51.412;5.436;2023-08-20T05:21:12;102082.22;;;16.77;100.00
74045;BME280;62389;51.412;5.436;2023-08-20T05:23:39;102079.63;;;16.76;100.00
74045;BME280;62389;51.412;5.436;2023-08-20T05:26:05;102078.56;;;16.80;100.00
74045;BME280;62389;51.412;5.436;2023-08-20T05:28:31;102083.22;;;16.75;100.00
74045;BME280;62389;51.412;5.436;2023-08-20T05:30:56;102083.13;;;16.76;100.00
74045;BME280;62389;51.412;5.436;2023-08-20T05:33:22;102083.00;;;16.79;100.00
74045;BME280;62389;51.412;5.436;2023-08-20T05:35:48;102087.09;;;16.85;100.00
74045;BME280;62389;51.412;5.436;2023-08-20T05:38:13;102092.25;;;16.88;100.00
74045;BME280;62389;51.412;5.436;2023-08-20T05:40:39;102093.94;;;16.89;100.00
74045;BME280;62389;51.412;5.436;2023-08-20T05:43:04;102097.53;;;16.88;100.00
74045;BME280;62389;51.412;5.436;2023-08-20T05:45:29;102096.75;;;16.86;100.00
74045;BME280;62389;51.412;5.436;2023-08-20T05:47:55;102102.97;;;16.85;100.00
74045;BME280;62389;51.412;5.436;2023-08-20T05:50:20;102097.53;;;16.88;100.00
74045;BME280;62389;51.412;5.436;2023-08-20T05:52:47;102100.81;;;16.93;100.00
74045;BME280;62389;51.412;5.436;2023-08-20T05:55:13;102095.19;;;16.99;100.00
74045;BME280;62389;51.412;5.436;2023-08-20T05:57:38;102101.88;;;17.06;100.00
74045;BME280;62389;51.412;5.436;2023-08-20T06:00:04;102099.84;;;17.12;100.00
74045;BME280;62389;51.412;5.436;2023-08-20T06:02:30;102099.69;;;17.15;100.00
74045;BME280;62389;51.412;5.436;2023-08-20T06:04:55;102104.84;;;17.18;100.00
74045;BME280;62389;51.412;5.436;2023-08-20T06:07:21;102094.09;;;17.21;100.00
74045;BME280;62389;51.412;5.436;2023-08-20T06:09:46;102096.50;;;17.25;100.00
74045;BME280;62389;51.412;5.436;2023-08-20T06:12:12;102094.47;;;17.30;100.00
74045;BME280;62389;51.412;5.436;2023-08-20T06:14:37;102087.34;;;17.32;100.00
74045;BME280;62389;51.412;5.436;2023-08-20T06:17:02;102087.09;;;17.37;100.00
74045;BME280;62389;51.412;5.436;2023-08-20T06:19:28;102075.41;;;17.41;100.00
74045;BME280;62389;51.412;5.436;2023-08-20T06:21:54;102082.09;;;17.48;100.00
74045;BME280;62389;51.412;5.436;2023-08-20T06:24:19;102081.75;;;17.54;100.00
74045;BME280;62389;51.412;5.436;2023-08-20T06:26:45;102084.94;;;17.61;100.00
74045;BME280;62389;51.412;5.436;2023-08-20T06:29:10;102088.19;;;17.66;100.00
74045;BME280;62389;51.412;5.436;2023-08-20T06:31:36;102086.97;;;17.73;100.00
74045;BME280;62389;51.412;5.436;2023-08-20T06:34:01;102083.53;;;17.87;100.00
74045;BME280;62389;51.412;5.436;2023-08-20T06:36:27;102089.88;;;18.00;100.00
74045;BME280;62389;51.412;5.436;2023-08-20T06:38:52;102093.13;;;18.05;100.00
74045;BME280;62389;51.412;5.436;2023-08-20T06:41:18;102092.78;;;18.11;100.00
74045;BME280;62389;51.412;5.436;2023-08-20T06:43:43;102102.28;;;18.16;100.00
74045;BME280;62389;51.412;5.436;2023-08-20T06:46:09;102106.47;;;18.20;100.00
74045;BME280;62389;51.412;5.436;2023-08-20T06:48:34;102100.56;;;18.30;99.34
74045;BME280;62389;51.412;5.436;2023-08-20T06:51:13;102102.59;;;18.41;100.00
74045;BME280;62389;51.412;5.436;2023-08-20T06:53:40;102109.09;;;18.51;99.26
74045;BME280;62389;51.412;5.436;2023-08-20T06:56:09;102109.34;;;18.62;97.96
74045;BME280;62389;51.412;5.436;2023-08-20T06:58:35;102108.84;;;18.72;97.30
74045;BME280;62389;51.412;5.436;2023-08-20T07:01:01;102101.31;;;18.80;96.34
74045;BME280;62389;51.412;5.436;2023-08-20T07:03:42;102093.78;;;18.88;97.27
74045;BME280;62389;51.412;5.436;2023-08-20T07:06:09;102108.63;;;18.91;96.85
74045;BME280;62389;51.412;5.436;2023-08-20T07:08:35;102106.75;;;18.93;95.36
74045;BME280;62389;51.412;5.436;2023-08-20T07:11:01;102112.13;;;18.91;96.24
74045;BME280;62389;51.412;5.436;2023-08-20T07:13:27;102103.41;;;18.89;94.04
74045;BME280;62389;51.412;5.436;2023-08-20T07:15:52;102109.66;;;18.88;93.09
74045;BME280;62389;51.412;5.436;2023-08-20T07:18:17;102115.13;;;18.85;92.53
74045;BME280;62389;51.412;5.436;2023-08-20T07:20:43;102112.50;;;18.85;92.52
74045;BME280;62389;51.412;5.436;2023-08-20T07:23:09;102115.91;;;18.87;93.01
74045;BME280;62389;51.412;5.436;2023-08-20T07:25:39;102118.53;;;18.87;93.95
74045;BME280;62389;51.412;5.436;2023-08-20T07:28:05;102114.97;;;18.88;90.91
74045;BME280;62389;51.412;5.436;2023-08-20T07:30:31;102117.53;;;18.89;92.46
74045;BME280;62389;51.412;5.436;2023-08-20T07:32:56;102116.47;;;18.92;93.36
74045;BME280;62389;51.412;5.436;2023-08-20T07:35:21;102114.59;;;18.94;92.08
74045;BME280;62389;51.412;5.436;2023-08-20T07:37:47;102111.75;;;18.97;92.46
74045;BME280;62389;51.412;5.436;2023-08-20T07:40:13;102115.19;;;18.99;92.12
74045;BME280;62389;51.412;5.436;2023-08-20T07:42:40;102120.28;;;19.02;90.96
74045;BME280;62389;51.412;5.436;2023-08-20T07:45:06;102117.47;;;19.05;90.50
74045;BME280;62389;51.412;5.436;2023-08-20T07:47:32;102122.59;;;19.08;93.60
74045;BME280;62389;51.412;5.436;2023-08-20T07:49:57;102120.72;;;19.10;90.11
74045;BME280;62389;51.412;5.436;2023-08-20T07:52:22;102119.59;;;19.14;91.43
74045;BME280;62389;51.412;5.436;2023-08-20T07:54:48;102122.03;;;19.18;90.52
74045;BME280;62389;51.412;5.436;2023-08-20T07:57:13;102125.25;;;19.23;90.73
74045;BME280;62389;51.412;5.436;2023-08-20T07:59:39;102126.81;;;19.27;90.81
74045;BME280;62389;51.412;5.436;2023-08-20T08:02:05;102124.72;;;19.32;91.90
74045;BME280;62389;51.412;5.436;2023-08-20T08:04:30;102131.56;;;19.36;90.36
74045;BME280;62389;51.412;5.436;2023-08-20T08:06:56;102129.38;;;19.42;90.52
74045;BME280;62389;51.412;5.436;2023-08-20T08:09:27;102127.22;;;19.49;90.96
74045;BME280;62389;51.412;5.436;2023-08-20T08:11:53;102133.84;;;19.56;89.56
74045;BME280;62389;51.412;5.436;2023-08-20T08:14:18;102136.09;;;19.64;89.79
74045;BME280;62389;51.412;5.436;2023-08-20T08:16:45;102141.69;;;19.74;89.13
74045;BME280;62389;51.412;5.436;2023-08-20T08:19:10;102133.78;;;19.86;90.82
74045;BME280;62389;51.412;5.436;2023-08-20T08:21:36;102144.28;;;20.16;87.62
74045;BME280;62389;51.412;5.436;2023-08-20T08:24:01;102140.63;;;20.46;85.36
74045;BME280;62389;51.412;5.436;2023-08-20T08:26:27;102143.38;;;20.86;86.48
74045;BME280;62389;51.412;5.436;2023-08-20T08:28:53;102140.47;;;21.16;82.39
74045;BME280;62389;51.412;5.436;2023-08-20T08:31:19;102141.59;;;21.39;80.34
74045;BME280;62389;51.412;5.436;2023-08-20T08:33:44;102139.88;;;21.63;81.28
74045;BME280;62389;51.412;5.436;2023-08-20T08:36:09;102137.31;;;21.87;80.95
74045;BME280;62389;51.412;5.436;2023-08-20T08:38:36;102140.34;;;22.07;80.65
74045;BME280;62389;51.412;5.436;2023-08-20T08:41:05;102146.75;;;22.30;78.46
74045;BME280;62389;51.412;5.436;2023-08-20T08:43:34;102141.13;;;22.45;76.17
74045;BME280;62389;51.412;5.436;2023-08-20T08:46:01;102144.16;;;22.65;75.20
74045;BME280;62389;51.412;5.436;2023-08-20T08:48:29;102144.41;;;22.73;72.32
74045;BME280;62389;51.412;5.436;2023-08-20T08:50:55;102149.41;;;22.78;74.99
74045;BME280;62389;51.412;5.436;2023-08-20T08:53:23;102145.09;;;22.88;75.43
74045;BME280;62389;51.412;5.436;2023-08-20T08:55:49;102148.56;;;23.01;73.60
74045;BME280;62389;51.412;5.436;2023-08-20T08:58:15;102153.81;;;23.14;74.30
74045;BME280;62389;51.412;5.436;2023-08-20T09:00:40;102151.94;;;23.27;73.93
74045;BME280;62389;51.412;5.436;2023-08-20T09:03:06;102149.53;;;23.35;71.40
74045;BME280;62389;51.412;5.436;2023-08-20T09:05:31;102150.41;;;23.58;71.29
74045;BME280;62389;51.412;5.436;2023-08-20T09:07:57;102150.69;;;24.00;73.02
74045;BME280;62389;51.412;5.436;2023-08-20T09:10:25;102145.78;;;24.39;67.12
74045;BME280;62389;51.412;5.436;2023-08-20T09:12:54;102152.63;;;25.49;67.39
74045;BME280;62389;51.412;5.436;2023-08-20T09:15:21;102148.53;;;27.14;63.11
74045;BME280;62389;51.412;5.436;2023-08-20T09:17:54;102147.53;;;28.36;56.44
74045;BME280;62389;51.412;5.436;2023-08-20T09:20:33;102149.88;;;29.03;58.50
74045;BME280;62389;51.412;5.436;2023-08-20T09:22:59;102145.63;;;29.44;52.67
74045;BME280;62389;51.412;5.436;2023-08-20T09:25:24;102148.06;;;29.55;50.94
74045;BME280;62389;51.412;5.436;2023-08-20T09:27:50;102141.88;;;29.37;51.72
74045;BME280;62389;51.412;5.436;2023-08-20T09:30:18;102146.94;;;29.14;51.13
74045;BME280;62389;51.412;5.436;2023-08-20T09:32:45;102155.72;;;28.80;49.43
74045;BME280;62389;51.412;5.436;2023-08-20T09:35:27;102150.03;;;28.48;49.05
74045;BME280;62389;51.412;5.436;2023-08-20T09:37:58;102145.41;;;28.30;48.05
74045;BME280;62389;51.412;5.436;2023-08-20T09:40:24;102156.91;;;28.05;50.34
74045;BME280;62389;51.412;5.436;2023-08-20T09:42:50;102144.47;;;27.67;49.92
74045;BME280;62389;51.412;5.436;2023-08-20T09:45:16;102154.56;;;27.35;50.45
74045;BME280;62389;51.412;5.436;2023-08-20T09:47:43;102148.84;;;27.11;48.88
74045;BME280;62389;51.412;5.436;2023-08-20T09:50:13;102153.91;;;26.85;50.12
74045;BME280;62389;51.412;5.436;2023-08-20T09:52:48;102151.19;;;26.66;51.31
74045;BME280;62389;51.412;5.436;2023-08-20T09:55:20;102157.13;;;26.59;52.65
74045;BME280;62389;51.412;5.436;2023-08-20T09:57:48;102151.91;;;26.58;50.41
74045;BME280;62389;51.412;5.436;2023-08-20T10:00:14;102153.03;;;26.55;50.24
74045;BME280;62389;51.412;5.436;2023-08-20T10:02:41;102151.50;;;26.53;46.57
74045;BME280;62389;51.412;5.436;2023-08-20T10:05:10;102156.69;;;26.45;49.26
74045;BME280;62389;51.412;5.436;2023-08-20T10:07:36;102152.31;;;26.44;51.22
74045;BME280;62389;51.412;5.436;2023-08-20T10:10:09;102145.91;;;26.35;51.35
74045;BME280;62389;51.412;5.436;2023-08-20T10:12:37;102153.13;;;26.34;49.11
74045;BME280;62389;51.412;5.436;2023-08-20T10:15:04;102155.91;;;26.23;47.44
74045;BME280;62389;51.412;5.436;2023-08-20T10:17:33;102157.03;;;26.11;50.01
74045;BME280;62389;51.412;5.436;2023-08-20T10:20:01;102155.59;;;26.07;48.61
74045;BME280;62389;51.412;5.436;2023-08-20T10:22:39;102155.56;;;25.97;50.24
74045;BME280;62389;51.412;5.436;2023-08-20T10:25:09;102160.47;;;25.92;47.01
74045;BME280;62389;51.412;5.436;2023-08-20T10:27:37;102155.13;;;25.92;50.23
74045;BME280;62389;51.412;5.436;2023-08-20T10:30:10;102154.88;;;26.05;51.03
74045;BME280;62389;51.412;5.436;2023-08-20T10:35:08;102163.13;;;26.23;51.49
74045;BME280;62389;51.412;5.436;2023-08-20T10:37:34;102156.31;;;26.19;49.55
74045;BME280;62389;51.412;5.436;2023-08-20T10:39:59;102161.09;;;26.15;50.20
74045;BME280;62389;51.412;5.436;2023-08-20T10:42:28;102154.59;;;26.08;47.89
74045;BME280;62389;51.412;5.436;2023-08-20T10:45:01;102152.06;;;26.06;51.13
74045;BME280;62389;51.412;5.436;2023-08-20T10:47:44;102156.59;;;26.06;52.19
74045;BME280;62389;51.412;5.436;2023-08-20T10:50:12;102148.81;;;26.03;49.50
74045;BME280;62389;51.412;5.436;2023-08-20T10:52:54;102154.56;;;25.98;51.60
74045;BME280;62389;51.412;5.436;2023-08-20T10:55:23;102158.09;;;25.99;49.58
74045;BME280;62389;51.412;5.436;2023-08-20T10:57:55;102153.47;;;26.01;51.61
74045;BME280;62389;51.412;5.436;2023-08-20T11:00:21;102155.84;;;26.04;49.30
74045;BME280;62389;51.412;5.436;2023-08-20T11:02:47;102150.63;;;26.02;50.75
74045;BME280;62389;51.412;5.436;2023-08-20T11:05:17;102152.91;;;26.07;51.30
74045;BME280;62389;51.412;5.436;2023-08-20T11:07:45;102152.09;;;26.16;52.38
74045;BME280;62389;51.412;5.436;2023-08-20T11:10:13;102149.84;;;26.21;51.05
74045;BME280;62389;51.412;5.436;2023-08-20T11:12:39;102145.75;;;26.17;47.38
74045;BME280;62389;51.412;5.436;2023-08-20T11:15:05;102144.31;;;26.13;49.82
74045;BME280;62389;51.412;5.436;2023-08-20T11:17:31;102153.78;;;26.17;48.24
74045;BME280;62389;51.412;5.436;2023-08-20T11:19:56;102154.38;;;26.21;49.83
74045;BME280;62389;51.412;5.436;2023-08-20T11:22:22;102144.78;;;26.28;47.60
74045;BME280;62389;51.412;5.436;2023-08-20T11:24:47;102147.06;;;26.32;48.33
74045;BME280;62389;51.412;5.436;2023-08-20T11:27:13;102146.63;;;26.37;50.26
74045;BME280;62389;51.412;5.436;2023-08-20T11:29:42;102145.97;;;26.45;53.58
74045;BME280;62389;51.412;5.436;2023-08-20T11:32:09;102147.19;;;26.41;47.16
74045;BME280;62389;51.412;5.436;2023-08-20T11:34:34;102138.28;;;26.40;49.01
74045;BME280;62389;51.412;5.436;2023-08-20T11:37:00;102138.59;;;26.37;50.20
74045;BME280;62389;51.412;5.436;2023-08-20T11:39:25;102136.91;;;26.36;46.14
74045;BME280;62389;51.412;5.436;2023-08-20T11:41:51;102147.19;;;26.41;52.51
74045;BME280;62389;51.412;5.436;2023-08-20T11:44:20;102137.91;;;26.45;52.44
74045;BME280;62389;51.412;5.436;2023-08-20T11:46:49;102132.97;;;26.50;51.34
74045;BME280;62389;51.412;5.436;2023-08-20T11:49:14;102129.88;;;26.45;44.54
74045;BME280;62389;51.412;5.436;2023-08-20T11:51:47;102132.44;;;26.46;46.87
74045;BME280;62389;51.412;5.436;2023-08-20T11:54:14;102118.31;;;26.54;47.47
74045;BME280;62389;51.412;5.436;2023-08-20T11:56:50;102110.84;;;26.67;50.54
74045;BME280;62389;51.412;5.436;2023-08-20T11:59:18;102119.16;;;26.74;47.30
74045;BME280;62389;51.412;5.436;2023-08-20T12:01:50;102111.53;;;26.69;47.66
74045;BME280;62389;51.412;5.436;2023-08-20T12:04:16;102107.72;;;26.72;44.81
74045;BME280;62389;51.412;5.436;2023-08-20T12:06:41;102104.19;;;26.71;48.13
74045;BME280;62389;51.412;5.436;2023-08-20T12:09:21;102099.38;;;26.75;50.77
74045;BME280;62389;51.412;5.436;2023-08-20T12:11:51;102104.47;;;26.78;48.36
74045;BME280;62389;51.412;5.436;2023-08-20T12:14:20;102094.56;;;26.78;48.37
74045;BME280;62389;51.412;5.436;2023-08-20T12:16:45;102095.25;;;26.80;47.44
74045;BME280;62389;51.412;5.436;2023-08-20T12:19:12;102088.78;;;26.83;47.92
74045;BME280;62389;51.412;5.436;2023-08-20T12:21:37;102090.63;;;26.82;44.68
74045;BME280;62389;51.412;5.436;2023-08-20T12:24:03;102091.72;;;26.90;47.69
74045;BME280;62389;51.412;5.436;2023-08-20T12:26:29;102090.88;;;26.99;48.59
74045;BME280;62389;51.412;5.436;2023-08-20T12:28:55;102089.78;;;27.11;47.40
74045;BME280;62389;51.412;5.436;2023-08-20T12:31:20;102085.09;;;27.13;51.17
74045;BME280;62389;51.412;5.436;2023-08-20T12:33:46;102086.94;;;27.13;45.48
74045;BME280;62389;51.412;5.436;2023-08-20T12:36:11;102088.47;;;27.15;45.74
74045;BME280;62389;51.412;5.436;2023-08-20T12:38:36;102081.84;;;27.09;47.44
74045;BME280;62389;51.412;5.436;2023-08-20T12:41:02;102093.00;;;27.15;49.08
74045;BME280;62389;51.412;5.436;2023-08-20T12:43:29;102091.88;;;27.17;49.10
74045;BME280;62389;51.412;5.436;2023-08-20T12:45:54;102090.72;;;27.20;50.55
74045;BME280;62389;51.412;5.436;2023-08-20T12:48:20;102091.97;;;27.25;47.81
74045;BME280;62389;51.412;5.436;2023-08-20T12:50:45;102096.66;;;27.23;46.87
74045;BME280;62389;51.412;5.436;2023-08-20T12:53:11;102091.69;;;27.28;45.83
74045;BME280;62389;51.412;5.436;2023-08-20T12:55:38;102098.16;;;27.35;46.81